Time;durP1;ratioP1;P1;durP2;ratioP2;P2;SDS_P1;SDS_P2;PMS_P1;PMS_P2;Temp;Humidity;BMP_temperature;BMP_pressure;BME280_temperature;BME280_humidity;BME280_pressure;Samples;Min_cycle;Max_cycle;Signal;HPM_P1;HPM_P2
2023/01/23 02:48:44;;;;;;;;;;;22.70;74.00;;;;;;6303369;22;20013;-74
2023/01/23 02:51:11;;;;;;;;;;;22.80;72.30;;;;;;6306102;22;20341;-75
2023/01/23 02:53:38;;;;;;;;;;;22.80;72.10;;;;;;6305942;22;19935;-75
2023/01/23 02:56:05;;;;;;;;;;;22.90;73.10;;;;;;6306010;22;19903;-73
2023/01/23 03:01:16;;;;;;;;;;;22.80;70.20;;;;;;6305755;22;19910;-73
2023/01/23 03:03:43;;;;;;;;;;;22.80;72.40;;;;;;6306088;22;19903;-73
2023/01/23 03:06:10;;;;;;;;;;;22.80;71.90;;;;;;6305628;22;19906;-73
2023/01/23 03:08:46;;;;;;;;;;;22.80;69.60;;;;;;6305323;22;20013;-73
2023/01/23 03:11:12;;;;;;;;;;;22.70;70.00;;;;;;6305841;22;19910;-73
2023/01/23 03:13:39;;;;;;;;;;;22.70;69.00;;;;;;6277994;22;19941;-72
2023/01/23 03:16:06;;;;;;;;;;;22.70;68.60;;;;;;6305938;22;19910;-73
2023/01/23 03:18:33;;;;;;;;;;;22.80;69.30;;;;;;6306329;22;19903;-73
2023/01/23 03:21:03;;;;;;;;;;;22.80;67.50;;;;;;6306003;22;19907;-72
2023/01/23 03:23:30;;;;;;;;;;;22.80;69.90;;;;;;6306096;22;19903;-73
2023/01/23 03:25:59;;;;;;;;;;;22.90;69.90;;;;;;6306314;22;19965;-72
2023/01/23 03:31:11;;;;;;;;;;;23.00;70.20;;;;;;6306342;22;19930;-73
2023/01/23 03:33:41;;;;;;;;;;;23.10;68.20;;;;;;6305689;22;19975;-73
2023/01/23 03:36:09;;;;;;;;;;;23.30;70.00;;;;;;6306111;22;19914;-73
2023/01/23 03:38:36;;;;;;;;;;;23.30;69.60;;;;;;6306574;22;19934;-73
2023/01/23 03:43:47;;;;;;;;;;;23.30;69.10;;;;;;6306194;22;19914;-73
2023/01/23 03:46:14;;;;;;;;;;;23.30;66.60;;;;;;6306850;22;20310;-75
2023/01/23 07:53:50;;;;;;;;;;;22.70;73.20;;;;;;6296870;22;19929;-70
2023/01/23 07:56:17;;;;;;;;;;;22.60;73.50;;;;;;6303765;22;19911;-71
2023/01/23 07:58:44;;;;;;;;;;;22.60;74.70;;;;;;6304361;22;20345;-71
2023/01/23 08:01:11;;;;;;;;;;;22.60;75.50;;;;;;6303962;22;19907;-70
2023/01/23 08:03:37;;;;;;;;;;;22.50;75.00;;;;;;6301678;22;19942;-70
2023/01/23 08:06:04;;;;;;;;;;;22.50;75.90;;;;;;6304231;22;20371;-70
2023/01/23 08:08:31;;;;;;;;;;;22.50;76.50;;;;;;6302966;22;19962;-71
2023/01/23 08:10:57;;;;;;;;;;;22.50;75.50;;;;;;6304251;22;19911;-70
2023/01/23 08:13:25;;;;;;;;;;;22.50;75.80;;;;;;6302148;22;19907;-70
2023/01/23 08:15:52;;;;;;;;;;;22.50;75.80;;;;;;6303205;22;19918;-69
2023/01/23 08:18:18;;;;;;;;;;;22.40;76.50;;;;;;6276471;22;19907;-70
2023/01/23 08:20:51;;;;;;;;;;;22.50;77.10;;;;;;6304268;22;19907;-69
2023/01/23 08:23:18;;;;;;;;;;;22.40;77.30;;;;;;6303930;22;19906;-69
2023/01/23 08:25:44;;;;;;;;;;;22.40;77.50;;;;;;6303925;22;19918;-69
2023/01/23 08:28:11;;;;;;;;;;;22.40;77.80;;;;;;6303516;22;20345;-70
2023/01/23 08:30:38;;;;;;;;;;;22.40;78.10;;;;;;6304078;22;19915;-69
2023/01/23 08:33:04;;;;;;;;;;;22.40;77.30;;;;;;6304087;22;19942;-70
2023/01/23 08:35:31;;;;;;;;;;;22.40;76.70;;;;;;6304069;22;20281;-70
2023/01/23 08:37:58;;;;;;;;;;;22.30;76.50;;;;;;6304497;22;20529;-71
2023/01/23 08:40:25;;;;;;;;;;;22.40;76.30;;;;;;6303377;22;19913;-71
2023/01/23 08:42:51;;;;;;;;;;;22.30;76.50;;;;;;6303099;22;19938;-71
2023/01/23 08:45:18;;;;;;;;;;;22.40;76.90;;;;;;6276594;22;19914;-71
2023/01/23 08:47:44;;;;;;;;;;;22.30;76.10;;;;;;6303300;22;19938;-71
2023/01/23 08:50:11;;;;;;;;;;;22.30;76.40;;;;;;6303117;22;19946;-70
2023/01/23 08:52:38;;;;;;;;;;;22.30;76.80;;;;;;6276252;22;19918;-70
2023/01/23 11:08:42;;;;;;;;;;;21.80;79.30;;;;;;6296748;22;20426;-67
2023/01/23 11:11:11;;;;;;;;;;;21.90;79.40;;;;;;6302630;22;19907;-67
2023/01/23 11:13:38;;;;;;;;;;;21.80;79.80;;;;;;6302887;22;19903;-67
2023/01/23 11:16:04;;;;;;;;;;;21.80;79.70;;;;;;6302863;22;20245;-67
2023/01/23 11:18:32;;;;;;;;;;;21.80;79.70;;;;;;6302199;22;19907;-67
2023/01/23 11:20:59;;;;;;;;;;;21.80;79.60;;;;;;6302394;22;19927;-67
2023/01/23 11:23:26;;;;;;;;;;;21.80;79.70;;;;;;6272486;22;19907;-68
2023/01/23 11:25:53;;;;;;;;;;;21.80;79.70;;;;;;6274827;22;19907;-68
2023/01/23 11:28:25;;;;;;;;;;;21.80;80.00;;;;;;6302621;22;19993;-67
2023/01/23 11:30:58;;;;;;;;;;;21.80;80.00;;;;;;6302577;22;19933;-67
2023/01/23 11:33:25;;;;;;;;;;;21.70;80.20;;;;;;6302680;22;19911;-67
2023/01/23 11:35:51;;;;;;;;;;;21.70;80.30;;;;;;6302329;22;19903;-67
2023/01/23 11:38:18;;;;;;;;;;;21.70;80.60;;;;;;6303409;22;19903;-66
2023/01/23 11:40:46;;;;;;;;;;;21.70;80.50;;;;;;6276207;22;19911;-68
2023/01/23 11:43:15;;;;;;;;;;;21.60;80.60;;;;;;6275185;22;20515;-67
2023/01/23 11:45:45;;;;;;;;;;;21.60;80.50;;;;;;6302517;22;20399;-68
2023/01/23 11:48:12;;;;;;;;;;;21.60;80.70;;;;;;6302710;22;19911;-68
2023/01/23 11:50:43;;;;;;;;;;;21.60;80.90;;;;;;6303009;22;20242;-68
2023/01/23 11:53:14;;;;;;;;;;;21.60;81.30;;;;;;6303131;22;20293;-68
2023/01/23 11:55:44;;;;;;;;;;;21.50;81.50;;;;;;6276400;22;19953;-67
2023/01/23 11:58:29;;;;;;;;;;;21.50;81.60;;;;;;6303031;22;20249;-67
2023/01/23 12:01:31;;;;;;;;;;;21.50;81.90;;;;;;6302924;22;20390;-67
2023/01/23 12:04:12;;;;;;;;;;;21.50;81.90;;;;;;6145908;23;19911;-68
2023/01/23 12:06:47;;;;;;;;;;;21.40;82.00;;;;;;6260165;22;19906;-67
2023/01/23 12:09:19;;;;;;;;;;;21.40;82.10;;;;;;6275979;22;19919;-68
2023/01/23 12:11:52;;;;;;;;;;;21.30;82.30;;;;;;6276005;22;19911;-67
2023/01/23 12:14:19;;;;;;;;;;;21.30;82.50;;;;;;6276039;22;19907;-67
2023/01/23 12:16:52;;;;;;;;;;;21.30;82.50;;;;;;6302851;22;19910;-68
2023/01/23 12:19:19;;;;;;;;;;;21.30;82.50;;;;;;6303235;22;20384;-67
2023/01/23 12:21:54;;;;;;;;;;;21.30;82.60;;;;;;6302833;22;19914;-67
2023/01/23 12:24:43;;;;;;;;;;;21.30;82.90;;;;;;6302437;22;20288;-67
2023/01/23 12:27:22;;;;;;;;;;;21.40;82.80;;;;;;6275147;22;20279;-69
2023/01/23 12:29:55;;;;;;;;;;;21.40;82.80;;;;;;6305660;22;20378;-70
2023/01/23 12:32:34;;;;;;;;;;;21.40;82.60;;;;;;6278529;22;19903;-70
2023/01/23 12:35:13;;;;;;;;;;;21.50;82.40;;;;;;6307287;22;20306;-70
2023/01/23 12:37:42;;;;;;;;;;;21.50;82.30;;;;;;6307903;22;19946;-71
2023/01/23 12:40:21;;;;;;;;;;;21.50;82.50;;;;;;6307779;22;19903;-69
2023/01/23 12:42:55;;;;;;;;;;;21.50;82.70;;;;;;6307728;22;19903;-69
2023/01/23 12:45:22;;;;;;;;;;;21.40;82.80;;;;;;6280784;22;19945;-70
2023/01/23 12:47:58;;;;;;;;;;;21.40;82.80;;;;;;6280235;22;19957;-70
2023/01/23 12:50:44;;;;;;;;;;;21.40;82.80;;;;;;6280030;22;19911;-70
2023/01/23 12:53:15;;;;;;;;;;;21.30;83.00;;;;;;6306998;22;19910;-70
2023/01/23 12:55:55;;;;;;;;;;;21.30;83.20;;;;;;6308045;22;19909;-69
2023/01/23 12:58:23;;;;;;;;;;;21.30;83.40;;;;;;6307893;22;19903;-69
2023/01/23 13:00:49;;;;;;;;;;;21.20;83.50;;;;;;6307774;22;19907;-69
2023/01/23 13:03:23;;;;;;;;;;;21.20;83.70;;;;;;6307264;22;19932;-70
2023/01/23 13:05:59;;;;;;;;;;;21.20;84.00;;;;;;6280302;22;20277;-70
2023/01/23 13:08:31;;;;;;;;;;;21.20;84.10;;;;;;6307582;22;19906;-70
2023/01/23 13:13:49;;;;;;;;;;;21.10;84.40;;;;;;6307884;22;19973;-69
2023/01/23 13:16:16;;;;;;;;;;;21.10;84.60;;;;;;6307601;22;19931;-68
2023/01/23 13:22:05;;;;;;;;;;;21.00;85.20;;;;;;6284511;22;20332;-70
2023/01/23 13:27:31;;;;;;;;;;;20.90;85.40;;;;;;6284720;22;19956;-71
2023/01/23 13:29:58;;;;;;;;;;;20.80;85.20;;;;;;6307887;22;19922;-72
2023/01/23 13:50:02;;;;;;;;;;;20.80;84.40;;;;;;6263305;22;19954;-70
2023/01/23 13:58:12;;;;;;;;;;;20.80;83.90;;;;;;6271198;22;20333;-70
2023/01/23 14:00:39;;;;;;;;;;;20.90;84.00;;;;;;6307364;22;20207;-70
2023/01/23 14:06:05;;;;;;;;;;;21.00;83.80;;;;;;6284033;22;20279;-70
2023/01/23 14:08:32;;;;;;;;;;;20.90;83.70;;;;;;6307365;22;19903;-70
2023/01/23 14:10:59;;;;;;;;;;;20.90;83.90;;;;;;6280305;22;19943;-70
2023/01/23 14:13:25;;;;;;;;;;;20.90;83.90;;;;;;6307381;22;20900;-70
2023/01/23 14:16:11;;;;;;;;;;;20.90;84.10;;;;;;6307524;22;19933;-70
2023/01/23 14:18:54;;;;;;;;;;;20.90;84.00;;;;;;6306792;22;20381;-70
2023/01/23 14:21:27;;;;;;;;;;;20.90;84.30;;;;;;6307007;22;19903;-70
2023/01/23 14:23:55;;;;;;;;;;;20.90;84.20;;;;;;6280338;22;19903;-70
2023/01/23 14:26:26;;;;;;;;;;;20.80;84.30;;;;;;6305637;22;19910;-70
2023/01/23 14:28:57;;;;;;;;;;;20.80;84.20;;;;;;6305522;22;19968;-69
2023/01/23 14:31:26;;;;;;;;;;;20.80;84.30;;;;;;6305836;22;19913;-69
2023/01/23 14:34:16;;;;;;;;;;;20.80;84.20;;;;;;6306374;22;19903;-69
2023/01/23 14:36:43;;;;;;;;;;;20.80;84.10;;;;;;6286535;22;19929;-70
2023/01/23 14:39:15;;;;;;;;;;;20.80;84.10;;;;;;6306688;22;20004;-70
2023/01/23 14:41:41;;;;;;;;;;;20.80;84.00;;;;;;6278947;22;19903;-69
2023/01/23 14:44:11;;;;;;;;;;;20.80;84.10;;;;;;6279406;22;20246;-70
2023/01/23 14:46:39;;;;;;;;;;;20.80;84.00;;;;;;6306145;22;19981;-70
2023/01/23 14:49:06;;;;;;;;;;;20.80;83.80;;;;;;6307007;22;19906;-70
2023/01/23 14:51:33;;;;;;;;;;;20.80;83.80;;;;;;6306475;22;19976;-70
2023/01/23 14:54:03;;;;;;;;;;;20.70;83.70;;;;;;6306734;22;19903;-70
2023/01/23 14:56:35;;;;;;;;;;;20.80;83.80;;;;;;6302957;22;19998;-66
2023/01/23 14:59:06;;;;;;;;;;;20.70;83.80;;;;;;6279545;22;19943;-67
2023/01/23 15:01:33;;;;;;;;;;;20.70;83.80;;;;;;6279103;22;19910;-67
2023/01/23 15:04:00;;;;;;;;;;;20.70;83.90;;;;;;6278906;22;19911;-66
2023/01/23 15:06:27;;;;;;;;;;;20.70;84.00;;;;;;6275760;22;19904;-70
2023/01/23 15:08:54;;;;;;;;;;;20.70;83.80;;;;;;6248783;22;19911;-69
2023/01/23 15:11:24;;;;;;;;;;;20.70;83.70;;;;;;6275072;22;19929;-69
2023/01/23 15:13:53;;;;;;;;;;;20.70;83.50;;;;;;6248462;22;19907;-69
2023/01/23 15:16:20;;;;;;;;;;;20.70;83.50;;;;;;6275489;22;19903;-69
2023/01/23 15:19:16;;;;;;;;;;;20.70;83.30;;;;;;6248488;22;19917;-69
2023/01/23 15:21:42;;;;;;;;;;;20.70;83.40;;;;;;6242648;22;19903;-69
2023/01/23 15:24:09;;;;;;;;;;;20.70;83.40;;;;;;6275216;22;19904;-69
2023/01/23 15:26:36;;;;;;;;;;;20.70;83.50;;;;;;6275531;22;19962;-69
2023/01/23 15:29:09;;;;;;;;;;;20.60;83.50;;;;;;6275390;22;19911;-69
2023/01/23 15:31:36;;;;;;;;;;;20.60;83.60;;;;;;6275555;22;19977;-69
2023/01/23 15:34:17;;;;;;;;;;;20.60;83.80;;;;;;6275843;22;19978;-69
2023/01/23 15:36:48;;;;;;;;;;;20.60;83.80;;;;;;6275850;22;19903;-67
2023/01/23 15:39:25;;;;;;;;;;;20.60;84.00;;;;;;6248581;22;19958;-66
2023/01/23 15:41:52;;;;;;;;;;;20.60;84.00;;;;;;6275318;22;19903;-66
2023/01/23 15:44:20;;;;;;;;;;;20.60;84.00;;;;;;6275661;22;19904;-66
2023/01/23 15:46:46;;;;;;;;;;;20.60;84.00;;;;;;6248660;22;19903;-66
2023/01/23 15:49:13;;;;;;;;;;;20.60;84.30;;;;;;6275364;22;19911;-66
2023/01/23 15:51:40;;;;;;;;;;;20.60;84.40;;;;;;6222723;22;20319;-66
2023/01/23 15:54:10;;;;;;;;;;;20.60;84.40;;;;;;6275452;22;19950;-66
2023/01/23 15:56:36;;;;;;;;;;;20.60;84.30;;;;;;6248378;22;19919;-66
2023/01/23 15:59:05;;;;;;;;;;;20.50;84.40;;;;;;6275581;22;19904;-66
2023/01/23 16:01:31;;;;;;;;;;;20.50;84.40;;;;;;6248432;22;20032;-66
2023/01/23 16:03:58;;;;;;;;;;;20.50;84.50;;;;;;6275582;22;19904;-66
2023/01/23 16:06:25;;;;;;;;;;;20.40;84.40;;;;;;6274254;22;19911;-66
2023/01/23 16:08:52;;;;;;;;;;;20.40;84.20;;;;;;6249745;22;19903;-66
2023/01/23 16:11:18;;;;;;;;;;;20.40;84.10;;;;;;6277179;22;19903;-66
2023/01/23 16:13:45;;;;;;;;;;;20.30;83.80;;;;;;6250496;22;19903;-66
2023/01/23 16:16:15;;;;;;;;;;;20.30;83.90;;;;;;6277129;22;19910;-66
2023/01/23 16:18:42;;;;;;;;;;;20.30;83.80;;;;;;6277366;22;19903;-65
2023/01/23 16:21:15;;;;;;;;;;;20.30;83.80;;;;;;6250378;22;19911;-66
2023/01/23 16:23:42;;;;;;;;;;;20.30;83.90;;;;;;6276655;22;20028;-65
2023/01/23 16:26:18;;;;;;;;;;;20.20;83.90;;;;;;6276870;22;19903;-65
2023/01/23 16:28:45;;;;;;;;;;;20.20;84.30;;;;;;6250859;22;20022;-67
2023/01/23 16:31:12;;;;;;;;;;;20.10;84.50;;;;;;6276817;22;19904;-66
2023/01/23 16:33:38;;;;;;;;;;;20.10;84.50;;;;;;6249932;22;19904;-66
2023/01/23 16:36:06;;;;;;;;;;;20.10;84.50;;;;;;6277290;22;19915;-66
2023/01/23 16:38:32;;;;;;;;;;;20.10;84.70;;;;;;6250266;22;19922;-66
2023/01/23 16:41:00;;;;;;;;;;;20.10;84.60;;;;;;6250080;22;19949;-66
2023/01/23 16:43:27;;;;;;;;;;;20.10;84.50;;;;;;6249760;22;19907;-67
2023/01/23 16:45:55;;;;;;;;;;;20.10;84.60;;;;;;6277604;22;19903;-66
2023/01/23 16:48:22;;;;;;;;;;;20.00;84.60;;;;;;6277616;22;19942;-66
2023/01/23 16:50:49;;;;;;;;;;;20.00;84.40;;;;;;6249886;22;19950;-66
2023/01/23 16:53:18;;;;;;;;;;;20.00;84.50;;;;;;6250150;22;19934;-67
2023/01/23 16:55:45;;;;;;;;;;;20.00;84.50;;;;;;6249381;22;20233;-67
2023/01/23 16:58:18;;;;;;;;;;;20.00;84.50;;;;;;6277300;22;20422;-67
2023/01/23 17:00:45;;;;;;;;;;;20.00;84.70;;;;;;6250145;22;19907;-69
2023/01/23 17:03:12;;;;;;;;;;;20.00;84.90;;;;;;6276976;22;19903;-69
2023/01/23 17:05:39;;;;;;;;;;;20.00;84.90;;;;;;6250240;22;19974;-69
2023/01/23 17:08:18;;;;;;;;;;;20.00;85.00;;;;;;6277077;22;19911;-69
2023/01/23 17:10:49;;;;;;;;;;;19.90;84.90;;;;;;6276220;22;19943;-69
2023/01/23 17:13:16;;;;;;;;;;;19.90;84.70;;;;;;6276760;22;19903;-69
2023/01/23 17:15:43;;;;;;;;;;;19.80;84.50;;;;;;6276385;22;19918;-69
2023/01/23 17:18:15;;;;;;;;;;;19.80;84.50;;;;;;6276865;22;19903;-69
2023/01/23 17:20:42;;;;;;;;;;;19.80;84.50;;;;;;6250185;22;19903;-69
2023/01/23 17:23:10;;;;;;;;;;;19.80;84.50;;;;;;6276889;22;20318;-69
2023/01/23 17:25:39;;;;;;;;;;;19.80;84.50;;;;;;6250299;22;19942;-69
2023/01/23 17:28:06;;;;;;;;;;;19.80;84.50;;;;;;6276609;22;19910;-69
2023/01/23 17:30:32;;;;;;;;;;;19.80;84.40;;;;;;6276519;22;19915;-68
2023/01/23 17:32:59;;;;;;;;;;;19.70;84.20;;;;;;6276605;22;20318;-68
2023/01/23 17:35:28;;;;;;;;;;;19.80;84.40;;;;;;6276051;22;20345;-69
2023/01/23 17:37:56;;;;;;;;;;;19.80;84.20;;;;;;6249669;22;19903;-69
2023/01/23 17:40:23;;;;;;;;;;;19.80;84.20;;;;;;6250181;22;19903;-66
2023/01/23 17:42:50;;;;;;;;;;;19.80;84.30;;;;;;6276180;22;19918;-66
2023/01/23 17:45:17;;;;;;;;;;;19.80;84.20;;;;;;6276592;22;19915;-66
2023/01/23 17:47:45;;;;;;;;;;;19.80;84.20;;;;;;6276638;22;20342;-67
2023/01/23 17:50:15;;;;;;;;;;;19.80;83.90;;;;;;6249647;22;19911;-66
2023/01/23 17:52:42;;;;;;;;;;;19.80;84.20;;;;;;6249786;22;20349;-67
2023/01/23 17:55:15;;;;;;;;;;;19.70;83.80;;;;;;6276469;22;19904;-67
2023/01/23 17:57:42;;;;;;;;;;;19.70;83.80;;;;;;6249042;22;20338;-67
2023/01/23 18:00:10;;;;;;;;;;;19.70;83.70;;;;;;6222183;22;19903;-67
2023/01/23 18:02:37;;;;;;;;;;;19.70;83.80;;;;;;6275667;22;20246;-67
2023/01/23 18:05:04;;;;;;;;;;;19.70;83.60;;;;;;6274623;22;20219;-67
2023/01/23 18:07:35;;;;;;;;;;;19.70;83.70;;;;;;6275038;22;19907;-69
2023/01/23 18:10:03;;;;;;;;;;;19.60;83.80;;;;;;6275644;22;20289;-69
2023/01/23 18:12:36;;;;;;;;;;;19.60;83.80;;;;;;6275789;22;19904;-69
2023/01/23 18:15:15;;;;;;;;;;;19.60;83.70;;;;;;6254440;22;20326;-69
2023/01/23 18:17:51;;;;;;;;;;;19.50;83.90;;;;;;6306714;22;20310;-69
2023/01/23 18:20:19;;;;;;;;;;;19.50;84.00;;;;;;6307135;22;19934;-69
2023/01/23 18:22:46;;;;;;;;;;;19.50;84.10;;;;;;6306822;22;19903;-69
2023/01/23 18:25:16;;;;;;;;;;;19.50;84.10;;;;;;6307419;22;20353;-69
2023/01/23 18:27:42;;;;;;;;;;;19.50;84.20;;;;;;6307108;22;19938;-69
2023/01/23 18:30:12;;;;;;;;;;;19.50;84.20;;;;;;6306580;22;19955;-67
2023/01/23 18:32:39;;;;;;;;;;;19.50;84.50;;;;;;6306693;22;19903;-68
2023/01/23 18:35:05;;;;;;;;;;;19.50;84.50;;;;;;6307305;22;19910;-67
2023/01/23 18:37:38;;;;;;;;;;;19.50;84.60;;;;;;6307322;22;19907;-68
2023/01/23 18:40:14;;;;;;;;;;;19.50;84.90;;;;;;6280071;22;20329;-68
2023/01/23 18:42:48;;;;;;;;;;;19.50;84.90;;;;;;6306957;22;19903;-67
2023/01/23 18:45:15;;;;;;;;;;;19.40;85.20;;;;;;6307108;22;19937;-68
2023/01/23 18:47:42;;;;;;;;;;;19.40;85.20;;;;;;6306853;22;19907;-68
2023/01/23 18:50:13;;;;;;;;;;;19.40;85.40;;;;;;6306826;22;19953;-68
2023/01/23 18:52:43;;;;;;;;;;;19.40;85.80;;;;;;6280024;22;19986;-68
2023/01/23 18:55:28;;;;;;;;;;;19.40;85.70;;;;;;6280137;22;19907;-68
2023/01/23 18:58:07;;;;;;;;;;;19.40;85.80;;;;;;6307198;22;19970;-68
2023/01/23 19:00:40;;;;;;;;;;;19.40;85.60;;;;;;6280256;22;19947;-68
2023/01/23 19:03:13;;;;;;;;;;;19.30;85.80;;;;;;6279937;22;19949;-65
2023/01/23 19:05:40;;;;;;;;;;;19.30;85.90;;;;;;6307100;22;19910;-65
2023/01/23 19:08:08;;;;;;;;;;;19.30;86.00;;;;;;6307141;22;19934;-66
